createdAt,value
2019-05-10T00:00:14.144Z,11
2019-05-10T00:05:14.136Z,10.94
2019-05-10T00:10:14.174Z,10.94
2019-05-10T00:15:14.184Z,10.94
2019-05-10T00:20:14.171Z,10.94
2019-05-10T00:25:14.079Z,10.94
2019-05-10T00:30:14.150Z,10.94
2019-05-10T00:35:14.139Z,10.94
2019-05-10T00:40:14.158Z,10.88
2019-05-10T00:45:14.162Z,10.88
2019-05-10T00:50:14.106Z,10.88
2019-05-10T00:55:18.713Z,10.88
2019-05-10T01:00:14.094Z,10.88
2019-05-10T01:05:14.119Z,10.88
2019-05-10T01:10:14.158Z,10.88
2019-05-10T01:15:14.054Z,10.88
2019-05-10T01:20:14.124Z,10.94
2019-05-10T01:25:14.065Z,10.94
2019-05-10T01:30:14.123Z,10.94
2019-05-10T01:35:14.122Z,11
2019-05-10T01:40:14.047Z,11
2019-05-10T01:45:14.094Z,11
2019-05-10T01:50:14.074Z,11
2019-05-10T01:55:14.078Z,11
2019-05-10T02:00:14.116Z,10.94
2019-05-10T02:05:14.084Z,10.88
2019-05-10T02:10:14.066Z,10.81
2019-05-10T02:15:14.081Z,10.81
2019-05-10T02:20:14.092Z,10.75
2019-05-10T02:25:14.024Z,10.69
2019-05-10T02:30:14.055Z,10.63
2019-05-10T02:35:14.075Z,10.56
2019-05-10T02:40:14.050Z,10.56
2019-05-10T02:45:14.070Z,10.63
2019-05-10T02:50:14.049Z,10.69
2019-05-10T02:55:14.074Z,10.75
2019-05-10T03:00:14.003Z,10.75
2019-05-10T03:05:14.137Z,10.75
2019-05-10T03:10:19.028Z,10.75
2019-05-10T03:15:14.085Z,10.75
2019-05-10T03:20:14.021Z,10.75
2019-05-10T03:25:14.059Z,10.81
2019-05-10T03:30:14.101Z,10.81
2019-05-10T03:35:14.014Z,10.81
2019-05-10T03:40:14.047Z,10.81
2019-05-10T03:45:14.016Z,10.81
2019-05-10T03:50:14.023Z,10.81
2019-05-10T03:55:13.988Z,10.75
2019-05-10T04:00:14.068Z,10.81
2019-05-10T04:05:14.043Z,10.81
2019-05-10T04:10:14.041Z,10.81
2019-05-10T04:15:14.006Z,10.88
2019-05-10T04:20:14.044Z,10.88
2019-05-10T04:25:14.035Z,10.81
2019-05-10T04:30:14.038Z,10.81
2019-05-10T04:35:13.989Z,10.81
2019-05-10T04:40:13.991Z,10.81
2019-05-10T04:45:13.940Z,10.88
2019-05-10T04:50:14.026Z,10.94
2019-05-10T04:55:14.034Z,11.13
2019-05-10T05:00:14.016Z,11.19
2019-05-10T05:05:13.940Z,11.25
2019-05-10T05:10:14.006Z,11.44
2019-05-10T05:15:13.999Z,11.31
2019-05-10T05:20:13.956Z,11.25
2019-05-10T05:25:14.015Z,11.19
2019-05-10T05:30:14.000Z,11.13
2019-05-10T05:35:15.452Z,11.19
2019-05-10T05:40:13.967Z,11.31
2019-05-10T05:45:13.985Z,12.31
2019-05-10T05:50:13.988Z,12.31
2019-05-10T05:55:13.899Z,12.19
2019-05-10T06:00:13.952Z,12.13
2019-05-10T06:05:32.143Z,12.38
2019-05-10T06:10:16.873Z,12.19
2019-05-10T06:15:13.934Z,12.25
2019-05-10T06:20:13.936Z,12.44
2019-05-10T06:25:13.969Z,12.63
2019-05-10T06:30:13.915Z,12.81
2019-05-10T06:35:18.941Z,12.94
2019-05-10T06:40:13.957Z,13.13
2019-05-10T06:45:16.018Z,13.88
2019-05-10T06:50:13.978Z,13.75
2019-05-10T06:55:13.959Z,15.13
2019-05-10T07:00:13.866Z,15.81
2019-05-10T07:05:13.929Z,15.88
2019-05-10T07:10:18.894Z,16.75
2019-05-10T07:15:13.925Z,15.44
2019-05-10T07:20:13.920Z,15.69
2019-05-10T07:25:13.898Z,17.31
2019-05-10T07:30:13.923Z,16.19
2019-05-10T07:35:13.943Z,14.81
2019-05-10T07:40:13.908Z,15.25
2019-05-10T07:45:18.597Z,15.75
2019-05-10T07:50:13.913Z,15.31
2019-05-10T07:55:17.821Z,15.25
2019-05-10T08:00:13.937Z,15.25
2019-05-10T08:05:15.371Z,15.25
2019-05-10T08:10:13.864Z,15.13
2019-05-10T08:15:13.825Z,16.06
2019-05-10T08:20:19.859Z,16.38
2019-05-10T08:25:15.286Z,16.5
2019-05-10T08:30:24.983Z,16.94
2019-05-10T08:35:16.942Z,17.63
2019-05-10T08:40:13.818Z,17.44
2019-05-10T08:45:13.837Z,16.19
2019-05-10T08:50:28.664Z,15.69
2019-05-10T08:55:13.834Z,15.06
2019-05-10T09:00:13.793Z,14.88
2019-05-10T09:05:13.827Z,14.63
2019-05-10T09:10:13.886Z,14.81
2019-05-10T09:15:13.928Z,15
2019-05-10T09:20:20.589Z,15.13
2019-05-10T09:25:13.828Z,15.19
2019-05-10T09:30:18.206Z,15.31
2019-05-10T09:35:13.846Z,14.94
2019-05-10T09:40:13.822Z,14.63
2019-05-10T09:45:13.860Z,14.44
2019-05-10T09:50:13.779Z,14.44
2019-05-10T09:55:14.906Z,14.5
2019-05-10T10:00:13.835Z,14.63
2019-05-10T10:05:13.829Z,14.81
2019-05-10T10:10:18.590Z,15.19
2019-05-10T10:15:19.072Z,15.75
2019-05-10T10:20:13.826Z,15.75
2019-05-10T10:25:13.799Z,15.56
2019-05-10T10:30:18.807Z,15.19
2019-05-10T10:35:18.714Z,15
2019-05-10T10:40:15.948Z,15.13
2019-05-10T10:45:13.824Z,15.44
2019-05-10T10:50:13.872Z,16.13
2019-05-10T10:55:13.823Z,15.94
2019-05-10T11:00:17.048Z,15.56
2019-05-10T11:05:13.762Z,15.38
2019-05-10T11:10:18.133Z,15.38
2019-05-10T11:15:16.374Z,15.63
2019-05-10T11:20:13.800Z,16.31
2019-05-10T11:25:13.766Z,16.56
2019-05-10T11:30:13.759Z,16.38
2019-05-10T11:35:18.846Z,16.13
2019-05-10T11:40:17.514Z,16.56
2019-05-10T11:45:13.715Z,16.5
2019-05-10T11:50:27.556Z,16.75
2019-05-10T11:55:13.769Z,17.25
2019-05-10T12:00:24.245Z,16.88
2019-05-10T12:05:19.782Z,16.88
2019-05-10T12:10:20.165Z,17.13
2019-05-10T12:15:14.170Z,16.63
2019-05-10T12:20:16.741Z,16.25
2019-05-10T12:25:35.383Z,16.38
2019-05-10T12:30:15.902Z,16.63
2019-05-10T12:35:13.686Z,16.88
2019-05-10T12:40:15.009Z,17
2019-05-10T12:45:13.756Z,16.94
2019-05-10T12:50:13.667Z,16.69
2019-05-10T12:55:13.720Z,16.5
2019-05-10T13:00:15.809Z,16.19
2019-05-10T13:05:15.521Z,16.31
2019-05-10T13:10:13.774Z,16.56
2019-05-10T13:15:13.715Z,15.94
2019-05-10T13:20:13.738Z,15.63
2019-05-10T13:25:13.749Z,15.44
2019-05-10T13:30:13.693Z,15.25
2019-05-10T13:35:13.828Z,14.88
2019-05-10T13:40:13.753Z,14.94
2019-05-10T13:45:13.668Z,15
2019-05-10T13:50:13.698Z,15
2019-05-10T13:55:13.725Z,14.94
2019-05-10T14:00:13.661Z,15.13
2019-05-10T14:05:17.390Z,15.31
2019-05-10T14:10:18.035Z,15.69
2019-05-10T14:15:13.917Z,15.75
2019-05-10T14:20:24.937Z,15.38
2019-05-10T14:25:13.784Z,14.81
2019-05-10T14:30:16.047Z,14.81
2019-05-10T14:35:16.238Z,14.75
2019-05-10T14:40:16.687Z,14.75
2019-05-10T14:45:13.675Z,14.75
2019-05-10T14:50:19.286Z,14.88
2019-05-10T14:55:13.670Z,15
2019-05-10T15:00:13.811Z,14.94
2019-05-10T15:05:15.596Z,15.5
2019-05-10T15:10:13.666Z,15.88
2019-05-10T15:15:13.646Z,16.13
2019-05-10T15:20:13.684Z,16.13
2019-05-10T15:25:13.634Z,15.81
2019-05-10T15:30:13.630Z,15.88
2019-05-10T15:35:13.666Z,16.19
2019-05-10T15:40:13.626Z,16
2019-05-10T15:45:14.500Z,16.19
2019-05-10T15:50:13.573Z,16.38
2019-05-10T15:55:16.411Z,16.38
2019-05-10T16:00:13.602Z,16.38
2019-05-10T16:05:23.751Z,16.5
2019-05-10T16:10:13.601Z,16.44
2019-05-10T16:15:19.811Z,16.25
2019-05-10T16:20:13.601Z,16.31
2019-05-10T16:25:13.551Z,16.19
2019-05-10T16:30:17.652Z,16.06
2019-05-10T16:35:14.644Z,15.94
2019-05-10T16:40:13.616Z,15.94
2019-05-10T16:45:13.572Z,15.88
2019-05-10T16:50:13.539Z,15.75
2019-05-10T16:55:13.637Z,15.63
2019-05-10T17:00:13.610Z,15.63
2019-05-10T17:05:15.610Z,15.19
2019-05-10T17:10:13.547Z,14.81
2019-05-10T17:15:13.597Z,14.31
2019-05-10T17:20:15.472Z,14.13
2019-05-10T17:25:13.561Z,13.88
2019-05-10T17:30:13.567Z,13.81
2019-05-10T17:35:13.560Z,13.63
2019-05-10T17:40:13.540Z,13.5
2019-05-10T17:45:13.559Z,13.25
2019-05-10T17:50:13.541Z,13.13
2019-05-10T17:55:16.597Z,12.94
2019-05-10T18:00:13.580Z,12.88
2019-05-10T18:05:13.544Z,12.81
2019-05-10T18:10:13.597Z,12.69
2019-05-10T18:15:13.541Z,12.56
2019-05-10T18:20:13.580Z,12.44
2019-05-10T18:25:19.992Z,12.25
2019-05-10T18:30:13.527Z,12.13
2019-05-10T18:35:14.980Z,11.94
2019-05-10T18:40:13.531Z,11.81
2019-05-10T18:45:13.520Z,11.69
2019-05-10T18:50:13.551Z,11.63
2019-05-10T18:55:13.503Z,11.56
2019-05-10T19:00:17.470Z,11.5
2019-05-10T19:05:13.594Z,11.44
2019-05-10T19:10:13.563Z,11.44
2019-05-10T19:15:15.471Z,11.38
2019-05-10T19:20:15.992Z,11.38
2019-05-10T19:25:14.321Z,11.31
2019-05-10T19:30:13.455Z,11.25
2019-05-10T19:35:13.479Z,11.06
2019-05-10T19:40:13.533Z,10.94
2019-05-10T19:45:19.080Z,10.81
2019-05-10T19:50:13.437Z,10.81
2019-05-10T19:55:19.224Z,10.81
2019-05-10T20:00:13.492Z,10.75
2019-05-10T20:05:13.513Z,10.56
2019-05-10T20:10:13.465Z,10.44
2019-05-10T20:15:13.434Z,10.25
2019-05-10T20:20:18.455Z,10.19
2019-05-10T20:25:13.505Z,10.19
2019-05-10T20:30:13.442Z,10.19
2019-05-10T20:35:13.457Z,10.19
2019-05-10T20:40:13.418Z,10.19
2019-05-10T20:45:13.498Z,10.13
2019-05-10T20:50:13.444Z,10.06
2019-05-10T20:55:13.488Z,9.94
2019-05-10T21:00:13.452Z,9.88
2019-05-10T21:05:13.397Z,9.75
2019-05-10T21:10:13.421Z,9.81
2019-05-10T21:15:13.515Z,10
2019-05-10T21:20:13.425Z,10.06
2019-05-10T21:25:13.411Z,10.13
2019-05-10T21:30:13.416Z,10.13
2019-05-10T21:35:13.451Z,9.94
2019-05-10T21:40:13.413Z,9.88
2019-05-10T21:45:13.420Z,9.75
2019-05-10T21:50:13.410Z,9.69
2019-05-10T21:55:13.423Z,9.69
2019-05-10T22:00:13.376Z,9.69
2019-05-10T22:05:13.435Z,9.75
2019-05-10T22:10:13.447Z,9.69
2019-05-10T22:15:13.363Z,9.63
2019-05-10T22:20:13.424Z,9.56
2019-05-10T22:25:13.388Z,9.44
2019-05-10T22:30:13.444Z,9.44
2019-05-10T22:35:13.438Z,9.38
2019-05-10T22:40:13.347Z,9.38
2019-05-10T22:45:13.376Z,9.31
2019-05-10T22:50:13.400Z,9.31
2019-05-10T22:55:13.493Z,9.44
2019-05-10T23:00:13.371Z,9.5
2019-05-10T23:05:13.325Z,9.63
2019-05-10T23:10:13.416Z,9.56
2019-05-10T23:15:13.332Z,9.56
2019-05-10T23:20:13.407Z,9.56
2019-05-10T23:25:13.359Z,9.5
2019-05-10T23:30:13.356Z,9.5
2019-05-10T23:35:13.311Z,9.5
2019-05-10T23:40:13.365Z,9.5
2019-05-10T23:45:13.390Z,9.5
2019-05-10T23:50:13.344Z,9.5
2019-05-10T23:55:13.299Z,9.5
